Time;durP1;ratioP1;P1;durP2;ratioP2;P2;SDS_P1;SDS_P2;PMS_P1;PMS_P2;Temp;Humidity;BMP_temperature;BMP_pressure;BME280_temperature;BME280_humidity;BME280_pressure;Samples;Min_cycle;Max_cycle;Signal;HPM_P1;HPM_P2
2021/03/30 00:02:24;;;;;;;12.30;6.30;;;14.80;82.10;;;;;;5071607;28;20544;-49
2021/03/30 00:04:50;;;;;;;10.60;5.80;;;14.50;82.20;;;;;;5071821;28;20908;-48
2021/03/30 00:07:17;;;;;;;15.10;6.53;;;14.10;82.10;;;;;;5071841;28;20898;-49
2021/03/30 00:09:44;;;;;;;12.67;6.07;;;14.30;82.80;;;;;;5072226;28;20588;-48
2021/03/30 00:12:10;;;;;;;16.47;5.87;;;14.40;83.10;;;;;;5071545;28;20456;-48
2021/03/30 00:14:36;;;;;;;11.50;5.80;;;14.10;83.30;;;;;;5071277;28;20854;-48
2021/03/30 00:17:03;;;;;;;8.03;5.23;;;14.00;83.60;;;;;;5070799;28;20493;-48
2021/03/30 00:19:30;;;;;;;10.30;5.33;;;14.10;83.90;;;;;;5071708;28;20426;-47
2021/03/30 00:21:56;;;;;;;11.53;6.00;;;14.00;84.50;;;;;;5071497;28;20959;-48
2021/03/30 00:24:22;;;;;;;8.57;5.17;;;13.80;84.70;;;;;;5070986;28;20476;-48
2021/03/30 00:26:49;;;;;;;9.97;6.50;;;13.70;84.90;;;;;;5069748;28;20937;-48
2021/03/30 00:29:15;;;;;;;9.97;6.07;;;14.00;85.50;;;;;;5071244;28;20568;-48
2021/03/30 00:31:41;;;;;;;8.90;6.67;;;14.20;86.00;;;;;;5071208;28;20516;-49
2021/03/30 00:34:07;;;;;;;12.77;6.50;;;13.60;85.70;;;;;;5070965;28;20468;-47
2021/03/30 00:36:34;;;;;;;13.93;6.13;;;13.80;85.70;;;;;;5071190;28;20435;-48
2021/03/30 00:39:00;;;;;;;8.20;5.47;;;13.70;85.70;;;;;;5071133;28;20451;-48
2021/03/30 00:41:27;;;;;;;9.63;6.07;;;13.50;85.90;;;;;;5069639;28;20460;-48
2021/03/30 00:43:53;;;;;;;12.03;7.00;;;13.60;85.90;;;;;;5070803;28;20529;-48
2021/03/30 00:46:20;;;;;;;18.60;6.60;;;13.40;85.80;;;;;;5071166;28;20432;-48
2021/03/30 00:48:49;;;;;;;17.40;6.53;;;13.60;86.70;;;;;;5070974;28;20537;-48
2021/03/30 00:51:18;;;;;;;9.57;6.53;;;13.90;87.20;;;;;;5069763;28;21007;-48
2021/03/30 00:54:06;;;;;;;10.23;5.93;;;14.10;87.30;;;;;;5070628;28;20568;-48
2021/03/30 00:56:45;;;;;;;10.43;6.30;;;13.40;86.70;;;;;;5069590;28;20455;-48
2021/03/30 00:59:12;;;;;;;12.10;5.93;;;13.70;87.10;;;;;;5070950;28;20467;-48
2021/03/30 01:01:39;;;;;;;14.20;6.43;;;13.50;87.00;;;;;;5070824;28;21000;-48
2021/03/30 01:04:05;;;;;;;17.37;7.00;;;13.40;86.80;;;;;;5070573;28;20534;-48
2021/03/30 01:06:32;;;;;;;13.90;6.90;;;13.70;87.70;;;;;;5070804;28;20459;-48
2021/03/30 01:09:19;;;;;;;13.47;6.87;;;13.70;88.00;;;;;;5070837;28;20484;-48
2021/03/30 01:12:04;;;;;;;13.93;6.67;;;13.60;88.20;;;;;;5070790;28;20429;-48
2021/03/30 01:14:45;;;;;;;14.57;6.83;;;13.40;88.10;;;;;;5070467;28;20471;-49
2021/03/30 01:17:18;;;;;;;10.67;6.90;;;13.60;88.30;;;;;;5070889;28;20883;-49
2021/03/30 01:20:13;;;;;;;14.90;6.43;;;13.30;88.20;;;;;;5069435;28;21034;-48
2021/03/30 01:23:06;;;;;;;13.93;7.00;;;13.10;88.40;;;;;;5069103;28;20464;-48
2021/03/30 01:25:34;;;;;;;15.97;7.37;;;13.20;88.90;;;;;;5070810;28;20430;-48
2021/03/30 01:28:09;;;;;;;10.73;7.50;;;13.30;89.20;;;;;;5071348;28;20481;-48
2021/03/30 01:30:38;;;;;;;18.20;7.93;;;13.20;89.50;;;;;;5074699;28;20544;-49
2021/03/30 01:33:10;;;;;;;12.27;7.23;;;12.90;89.50;;;;;;5074232;28;20976;-47
2021/03/30 01:35:37;;;;;;;11.63;6.83;;;13.10;89.90;;;;;;5074629;28;20425;-48
2021/03/30 01:38:05;;;;;;;15.70;7.60;;;13.00;90.00;;;;;;5074482;28;20468;-47
2021/03/30 01:40:34;;;;;;;11.20;6.93;;;13.50;90.40;;;;;;5074578;28;20430;-48
2021/03/30 01:43:03;;;;;;;15.07;8.07;;;13.10;90.30;;;;;;5074259;28;20436;-47
2021/03/30 01:45:32;;;;;;;12.90;7.00;;;13.10;90.20;;;;;;5074579;28;20920;-48
2021/03/30 01:48:01;;;;;;;10.57;6.80;;;13.20;90.40;;;;;;5074221;28;20473;-48
2021/03/30 01:50:28;;;;;;;8.30;6.80;;;12.90;90.40;;;;;;5074419;28;20535;-49
2021/03/30 01:52:56;;;;;;;15.13;6.73;;;13.20;90.60;;;;;;5073944;28;20586;-49
2021/03/30 01:55:23;;;;;;;14.30;7.10;;;13.30;90.70;;;;;;5074200;28;20529;-47
2021/03/30 01:57:53;;;;;;;14.93;8.50;;;12.90;90.50;;;;;;5072719;28;20477;-48
2021/03/30 02:00:22;;;;;;;19.33;7.80;;;12.90;90.70;;;;;;5074237;28;20484;-49
2021/03/30 02:02:49;;;;;;;13.37;6.97;;;12.60;90.60;;;;;;5073846;28;20533;-48
2021/03/30 02:05:17;;;;;;;15.40;7.20;;;13.00;91.00;;;;;;5074247;28;20696;-47
2021/03/30 02:07:46;;;;;;;10.60;6.83;;;12.60;90.90;;;;;;5073919;28;20482;-48
2021/03/30 02:10:17;;;;;;;12.20;7.17;;;12.90;91.10;;;;;;5072677;28;20444;-49
2021/03/30 02:12:45;;;;;;;16.30;7.03;;;13.00;91.10;;;;;;5073586;28;20441;-48
2021/03/30 02:15:13;;;;;;;14.57;7.43;;;12.80;91.10;;;;;;5072468;28;20430;-48
2021/03/30 02:17:43;;;;;;;12.33;6.80;;;12.90;91.30;;;;;;5073778;28;20967;-47
2021/03/30 02:20:15;;;;;;;22.33;8.83;;;12.90;91.20;;;;;;5072595;28;20941;-49
2021/03/30 02:22:48;;;;;;;13.37;6.90;;;12.70;91.30;;;;;;5072764;28;20786;-48
2021/03/30 02:25:15;;;;;;;23.63;8.00;;;12.70;91.40;;;;;;5073051;28;20432;-47
2021/03/30 02:27:42;;;;;;;11.33;6.00;;;12.50;91.30;;;;;;5073393;28;20487;-48
2021/03/30 02:30:11;;;;;;;15.27;7.17;;;12.50;91.40;;;;;;5073417;28;20986;-48
2021/03/30 02:32:39;;;;;;;17.37;8.63;;;12.50;91.40;;;;;;5073206;28;21025;-47
2021/03/30 02:35:08;;;;;;;15.93;8.23;;;12.50;91.60;;;;;;5073553;28;20861;-48
2021/03/30 02:37:36;;;;;;;15.60;8.50;;;12.90;91.80;;;;;;5073131;28;21016;-48
2021/03/30 02:40:05;;;;;;;16.63;8.17;;;12.90;91.80;;;;;;5072194;28;20454;-46
2021/03/30 02:42:33;;;;;;;12.97;7.13;;;12.50;91.60;;;;;;5073082;28;20526;-48
2021/03/30 02:45:01;;;;;;;15.80;8.50;;;12.80;91.80;;;;;;5073380;28;20638;-47
2021/03/30 02:47:27;;;;;;;13.87;7.10;;;13.10;91.80;;;;;;5073169;28;20531;-47
2021/03/30 02:49:54;;;;;;;14.80;7.70;;;12.60;91.80;;;;;;5073185;28;20482;-48
2021/03/30 02:52:23;;;;;;;11.80;6.80;;;12.40;91.60;;;;;;5072861;28;20492;-48
2021/03/30 02:54:49;;;;;;;13.23;7.60;;;12.90;92.00;;;;;;5072977;28;20499;-48
2021/03/30 02:57:17;;;;;;;15.03;7.83;;;13.10;92.10;;;;;;5072967;28;20448;-49
2021/03/30 02:59:45;;;;;;;17.50;7.60;;;12.50;92.10;;;;;;5073050;28;20442;-48
2021/03/30 03:02:12;;;;;;;15.30;8.00;;;13.00;92.40;;;;;;5072890;28;20461;-48
2021/03/30 03:04:39;;;;;;;14.00;7.50;;;12.70;92.50;;;;;;5072452;28;20907;-49
2021/03/30 03:07:06;;;;;;;18.13;7.97;;;12.30;92.40;;;;;;5072803;28;20899;-48
2021/03/30 03:09:34;;;;;;;25.33;9.83;;;12.50;92.60;;;;;;5072949;28;20568;-48
2021/03/30 03:12:01;;;;;;;17.23;7.33;;;12.70;92.70;;;;;;5072511;28;20872;-48
2021/03/30 03:14:29;;;;;;;17.97;8.20;;;12.50;92.60;;;;;;5070930;28;20532;-48
2021/03/30 03:16:56;;;;;;;22.43;8.90;;;12.50;92.90;;;;;;5072298;28;20528;-48
2021/03/30 03:19:24;;;;;;;20.10;7.63;;;12.40;92.80;;;;;;5072460;28;20432;-47
2021/03/30 03:21:51;;;;;;;13.10;7.10;;;12.20;92.90;;;;;;5072213;28;20463;-48
2021/03/30 03:24:18;;;;;;;22.20;9.70;;;12.20;92.90;;;;;;5072418;28;20492;-48
2021/03/30 03:26:44;;;;;;;18.23;9.13;;;12.00;93.00;;;;;;5072092;28;20511;-48
2021/03/30 03:29:16;;;;;;;15.47;8.13;;;12.60;93.20;;;;;;5072198;28;20519;-48
2021/03/30 03:31:44;;;;;;;19.83;7.60;;;12.40;93.40;;;;;;5070997;28;20452;-48
2021/03/30 03:34:11;;;;;;;15.53;7.50;;;12.50;93.40;;;;;;5071653;28;20520;-48
2021/03/30 03:36:39;;;;;;;17.13;8.67;;;12.50;93.50;;;;;;5071892;28;20455;-49
2021/03/30 03:39:08;;;;;;;18.60;8.10;;;12.40;93.50;;;;;;5071971;28;20435;-49
2021/03/30 03:41:34;;;;;;;18.00;7.60;;;12.20;93.30;;;;;;5071813;28;20919;-48
2021/03/30 03:44:01;;;;;;;12.97;7.50;;;12.20;93.50;;;;;;5071753;28;20431;-48
2021/03/30 03:46:27;;;;;;;25.13;8.70;;;12.20;93.60;;;;;;5071792;28;20852;-48
2021/03/30 03:48:54;;;;;;;13.90;8.10;;;11.70;93.40;;;;;;5071707;28;20560;-48
2021/03/30 03:51:22;;;;;;;20.80;9.37;;;12.00;93.60;;;;;;5070249;28;20442;-47
2021/03/30 03:53:52;;;;;;;26.30;8.80;;;12.50;94.00;;;;;;5071355;28;20512;-48
2021/03/30 03:56:22;;;;;;;13.80;8.70;;;12.10;94.00;;;;;;5071731;28;20438;-48
2021/03/30 03:58:53;;;;;;;24.33;8.97;;;12.00;94.10;;;;;;5070624;28;20468;-48
2021/03/30 04:01:24;;;;;;;23.10;9.40;;;12.00;94.40;;;;;;5071741;28;20441;-48
2021/03/30 04:03:55;;;;;;;19.40;7.20;;;11.80;94.50;;;;;;5069967;28;20476;-48
2021/03/30 04:06:30;;;;;;;17.20;9.63;;;11.80;94.60;;;;;;5071585;28;20819;-47
2021/03/30 04:08:59;;;;;;;19.80;10.00;;;11.70;94.80;;;;;;5071238;28;20496;-49
2021/03/30 04:11:28;;;;;;;24.60;10.00;;;11.60;95.00;;;;;;5071522;28;20430;-48
2021/03/30 04:13:57;;;;;;;18.33;8.60;;;11.90;95.30;;;;;;5070706;28;20428;-49
2021/03/30 04:16:23;;;;;;;20.33;9.17;;;11.60;95.40;;;;;;5071761;28;20442;-48
2021/03/30 04:18:49;;;;;;;62.47;42.67;;;11.60;95.60;;;;;;5071078;28;20455;-48
2021/03/30 04:21:23;;;;;;;26.80;13.00;;;11.60;95.70;;;;;;5071259;28;20499;-48
2021/03/30 04:23:51;;;;;;;20.80;9.10;;;11.70;95.80;;;;;;5070649;28;20433;-48
2021/03/30 04:26:17;;;;;;;22.37;10.63;;;11.60;95.80;;;;;;5070970;28;20433;-48
2021/03/30 04:28:43;;;;;;;22.23;10.03;;;11.80;95.90;;;;;;5071080;28;20950;-48
2021/03/30 04:31:10;;;;;;;22.80;10.40;;;11.50;95.80;;;;;;5070941;28;20435;-48
2021/03/30 04:33:36;;;;;;;23.30;10.13;;;11.50;95.90;;;;;;5070747;28;20456;-47
2021/03/30 04:36:02;;;;;;;27.73;13.30;;;11.40;96.00;;;;;;5070819;28;20846;-47
2021/03/30 04:38:30;;;;;;;19.37;11.40;;;11.60;96.20;;;;;;5086139;22;21015;-48
2021/03/30 04:40:56;;;;;;;29.33;13.50;;;11.60;96.40;;;;;;5071031;28;20438;-47
2021/03/30 04:43:23;;;;;;;44.40;22.87;;;11.60;96.40;;;;;;5071016;28;20430;-48
2021/03/30 04:45:50;;;;;;;28.07;18.53;;;11.50;96.40;;;;;;5071213;28;20465;-48
2021/03/30 04:48:16;;;;;;;41.00;19.07;;;11.50;96.70;;;;;;5071307;28;20496;-47
2021/03/30 04:50:44;;;;;;;32.47;15.27;;;11.50;96.80;;;;;;5071119;28;20927;-48
2021/03/30 04:53:10;;;;;;;29.50;13.37;;;11.20;96.60;;;;;;5070576;28;20537;-48
2021/03/30 04:55:38;;;;;;;26.03;11.50;;;11.50;96.80;;;;;;5070921;28;20521;-48
2021/03/30 04:58:04;;;;;;;27.03;10.50;;;11.70;96.70;;;;;;5071020;28;20446;-49
2021/03/30 05:00:30;;;;;;;37.47;11.37;;;11.70;96.80;;;;;;5071654;28;20439;-47
2021/03/30 05:02:57;;;;;;;23.37;11.50;;;11.80;96.80;;;;;;5072015;28;20438;-47
2021/03/30 05:05:23;;;;;;;18.90;9.83;;;11.70;96.50;;;;;;5075750;28;20529;-48
2021/03/30 05:07:49;;;;;;;20.40;10.20;;;11.90;96.70;;;;;;5075008;28;20540;-48
2021/03/30 05:10:17;;;;;;;26.20;11.23;;;11.30;96.40;;;;;;5075075;28;20937;-49
2021/03/30 05:12:44;;;;;;;21.63;10.53;;;11.80;96.70;;;;;;5074544;28;20825;-48
2021/03/30 05:15:11;;;;;;;27.90;10.73;;;11.60;97.00;;;;;;5074999;28;20437;-47
2021/03/30 05:17:37;;;;;;;25.83;12.50;;;11.40;96.80;;;;;;5074713;28;20462;-49
2021/03/30 05:20:04;;;;;;;27.53;12.93;;;11.50;96.90;;;;;;5075036;28;20430;-47
2021/03/30 05:22:31;;;;;;;26.90;11.70;;;11.50;97.00;;;;;;5074902;28;20848;-48
2021/03/30 05:24:57;;;;;;;37.03;12.43;;;11.60;97.60;;;;;;5074747;28;20434;-48
2021/03/30 05:27:23;;;;;;;29.93;11.70;;;11.70;97.40;;;;;;5074864;28;20446;-48
2021/03/30 05:29:50;;;;;;;34.77;13.70;;;11.50;97.50;;;;;;5074732;28;20562;-48
2021/03/30 05:32:19;;;;;;;29.40;12.77;;;11.70;97.70;;;;;;5074587;28;20422;-48
2021/03/30 05:34:47;;;;;;;28.77;12.37;;;11.50;97.90;;;;;;5074436;28;20532;-48
2021/03/30 05:37:13;;;;;;;28.80;12.03;;;10.90;97.60;;;;;;5074830;28;20449;-48
2021/03/30 05:39:40;;;;;;;31.90;10.43;;;11.70;97.80;;;;;;5074668;28;20441;-49
2021/03/30 05:42:07;;;;;;;22.40;10.50;;;11.20;97.60;;;;;;5074944;28;20429;-49
2021/03/30 05:44:34;;;;;;;24.73;10.40;;;11.50;97.70;;;;;;5074138;28;20426;-48
2021/03/30 05:47:12;;;;;;;20.30;9.77;;;11.60;97.70;;;;;;5074120;28;20457;-48
2021/03/30 05:49:39;;;;;;;28.87;11.00;;;11.70;97.50;;;;;;5074373;28;20488;-50
2021/03/30 05:52:12;;;;;;;35.83;10.73;;;11.80;97.20;;;;;;5073830;28;20500;-48
2021/03/30 05:54:38;;;;;;;18.10;11.30;;;11.80;96.80;;;;;;5074111;28;20438;-48
2021/03/30 05:57:09;;;;;;;19.47;11.17;;;11.90;96.60;;;;;;5074063;28;20454;-47
2021/03/30 05:59:36;;;;;;;24.53;9.17;;;11.90;96.10;;;;;;5074483;28;20430;-48
2021/03/30 06:02:09;;;;;;;24.83;10.73;;;11.70;95.60;;;;;;5074644;28;20515;-49
2021/03/30 06:04:37;;;;;;;19.13;8.43;;;12.50;95.60;;;;;;5073814;28;20448;-49
2021/03/30 06:07:04;;;;;;;19.37;8.67;;;12.10;95.00;;;;;;5074038;28;20432;-48
2021/03/30 06:09:32;;;;;;;11.30;7.47;;;12.60;94.60;;;;;;5073834;28;20504;-49
2021/03/30 06:11:58;;;;;;;22.77;9.33;;;12.60;94.20;;;;;;5073539;28;20434;-48
2021/03/30 06:14:37;;;;;;;21.33;10.30;;;13.00;94.20;;;;;;5074026;28;20485;-49
2021/03/30 06:17:06;;;;;;;15.57;8.93;;;12.80;93.20;;;;;;5074084;28;20453;-49
2021/03/30 06:19:49;;;;;;;22.93;8.90;;;12.90;93.10;;;;;;5074127;28;20466;-48
2021/03/30 06:22:16;;;;;;;15.20;8.83;;;12.90;92.70;;;;;;5073003;28;20508;-49
2021/03/30 06:24:44;;;;;;;16.43;8.10;;;13.00;92.30;;;;;;5072228;28;20511;-49
2021/03/30 06:27:25;;;;;;;28.30;10.40;;;13.20;91.70;;;;;;5073521;28;20464;-49
2021/03/30 06:29:53;;;;;;;14.13;8.50;;;13.50;91.30;;;;;;5073722;28;20484;-47
2021/03/30 06:32:21;;;;;;;18.97;8.57;;;13.40;90.50;;;;;;5071869;28;20439;-47
2021/03/30 06:34:51;;;;;;;13.23;8.80;;;13.50;90.20;;;;;;5073427;28;20441;-49
2021/03/30 06:37:32;;;;;;;25.63;9.37;;;13.40;88.70;;;;;;5073235;28;20527;-48
2021/03/30 06:40:00;;;;;;;14.57;9.03;;;13.40;87.70;;;;;;5073091;28;20428;-48
2021/03/30 06:42:33;;;;;;;14.73;9.13;;;13.50;87.10;;;;;;5073137;28;20436;-48
2021/03/30 06:45:00;;;;;;;15.83;7.87;;;13.70;86.40;;;;;;5073614;28;20452;-49
2021/03/30 06:47:28;;;;;;;21.27;8.83;;;13.60;86.10;;;;;;5073380;28;20456;-48
2021/03/30 06:49:58;;;;;;;19.43;9.53;;;13.60;84.70;;;;;;5073751;28;20558;-47
2021/03/30 06:52:26;;;;;;;23.03;10.27;;;13.70;84.20;;;;;;5073212;28;20436;-49
2021/03/30 06:54:55;;;;;;;19.00;9.70;;;14.10;84.30;;;;;;5073821;28;20536;-48
2021/03/30 06:57:40;;;;;;;24.57;10.47;;;13.80;82.90;;;;;;5073487;28;20478;-49
2021/03/30 07:00:12;;;;;;;14.47;10.60;;;13.90;82.10;;;;;;5073615;28;20431;-48
2021/03/30 07:02:47;;;;;;;15.07;11.20;;;13.90;82.80;;;;;;5073115;28;20468;-47
2021/03/30 07:05:30;;;;;;;18.57;10.57;;;14.20;82.30;;;;;;5073715;28;20437;-48
2021/03/30 07:07:57;;;;;;;20.13;10.67;;;14.20;81.90;;;;;;5073062;28;20457;-48
2021/03/30 07:10:24;;;;;;;18.33;11.10;;;14.10;80.80;;;;;;5072845;28;20588;-47
2021/03/30 07:12:52;;;;;;;28.60;20.83;;;14.40;80.40;;;;;;5071248;28;20445;-49
2021/03/30 07:15:19;;;;;;;18.47;11.27;;;14.40;80.70;;;;;;5072917;28;20445;-48
2021/03/30 07:17:57;;;;;;;16.57;10.60;;;14.30;79.50;;;;;;5072791;28;20465;-50
2021/03/30 07:20:25;;;;;;;16.67;9.73;;;14.30;79.00;;;;;;5073181;28;20831;-48
2021/03/30 07:22:53;;;;;;;26.63;16.30;;;14.40;78.40;;;;;;5073114;28;20468;-49
2021/03/30 07:25:22;;;;;;;17.63;10.67;;;14.40;78.30;;;;;;5072448;28;20469;-50
2021/03/30 07:27:53;;;;;;;18.53;10.10;;;14.50;78.30;;;;;;5072590;28;20812;-48
2021/03/30 07:30:22;;;;;;;23.23;10.83;;;14.00;76.70;;;;;;5072999;28;20838;-47
2021/03/30 07:33:07;;;;;;;21.90;11.30;;;14.60;77.10;;;;;;5072353;28;20440;-49
2021/03/30 07:35:37;;;;;;;16.07;11.37;;;14.50;76.40;;;;;;5072671;28;20437;-48
2021/03/30 07:38:10;;;;;;;13.43;10.67;;;14.60;75.60;;;;;;5072622;28;20457;-50
2021/03/30 07:40:38;;;;;;;22.07;11.57;;;14.60;75.30;;;;;;5072394;28;20437;-49
2021/03/30 07:43:06;;;;;;;24.23;11.40;;;14.70;74.20;;;;;;5072401;28;20876;-51
2021/03/30 07:45:36;;;;;;;17.40;10.43;;;14.60;73.40;;;;;;5072586;28;20470;-49
2021/03/30 07:48:07;;;;;;;16.30;10.60;;;14.80;74.40;;;;;;5072158;28;20517;-48
2021/03/30 07:50:55;;;;;;;16.57;11.13;;;15.00;74.40;;;;;;5072021;28;20476;-48
2021/03/30 07:53:39;;;;;;;21.60;12.53;;;15.00;74.30;;;;;;5071953;28;20425;-49
2021/03/30 07:56:06;;;;;;;22.40;11.00;;;14.80;74.60;;;;;;5070865;28;20552;-50
2021/03/30 07:58:40;;;;;;;15.50;11.40;;;15.10;75.00;;;;;;5072708;28;20455;-49
2021/03/30 08:01:08;;;;;;;26.17;12.17;;;14.90;74.30;;;;;;5072457;28;20459;-49
2021/03/30 08:03:37;;;;;;;17.60;11.33;;;14.60;73.70;;;;;;5072252;28;20422;-49
2021/03/30 08:06:06;;;;;;;15.63;11.13;;;15.20;74.80;;;;;;5071896;28;20441;-48
2021/03/30 08:08:49;;;;;;;15.80;11.97;;;15.30;74.50;;;;;;5071690;28;20540;-48
2021/03/30 08:11:16;;;;;;;19.17;11.70;;;15.50;75.80;;;;;;5072031;28;20520;-48
2021/03/30 08:13:51;;;;;;;20.90;12.50;;;15.50;74.80;;;;;;5072003;28;20429;-51
2021/03/30 08:16:19;;;;;;;25.60;13.43;;;15.50;74.90;;;;;;5071700;28;20524;-48
2021/03/30 08:18:49;;;;;;;16.90;11.80;;;15.40;74.70;;;;;;5071980;28;20450;-48
2021/03/30 08:21:17;;;;;;;21.50;12.93;;;15.40;74.60;;;;;;5072021;28;20437;-49
2021/03/30 08:24:07;;;;;;;24.77;14.10;;;15.60;75.00;;;;;;5071899;28;20438;-48
2021/03/30 08:26:37;;;;;;;20.53;12.60;;;15.60;75.70;;;;;;5071714;28;20919;-48
2021/03/30 08:29:07;;;;;;;21.07;13.00;;;15.80;76.10;;;;;;5071750;28;20501;-48
2021/03/30 08:31:35;;;;;;;20.20;12.80;;;15.80;76.30;;;;;;5071761;28;20893;-48
2021/03/30 08:34:05;;;;;;;24.87;13.20;;;15.70;76.30;;;;;;5070044;28;20464;-48
2021/03/30 08:36:34;;;;;;;20.10;12.03;;;15.90;76.30;;;;;;5072249;28;21026;-49
2021/03/30 08:39:07;;;;;;;22.63;12.37;;;15.80;75.60;;;;;;5069531;28;20482;-48
2021/03/30 08:41:58;;;;;;;24.87;12.90;;;16.00;76.00;;;;;;5070091;28;20481;-48
2021/03/30 08:44:37;;;;;;;25.30;13.20;;;15.60;75.30;;;;;;5071288;28;20476;-49
2021/03/30 08:47:04;;;;;;;30.37;15.03;;;15.90;75.40;;;;;;5071090;28;20423;-49
2021/03/30 08:49:38;;;;;;;18.83;14.13;;;15.80;75.00;;;;;;5069433;28;20473;-48
2021/03/30 08:52:10;;;;;;;20.67;12.03;;;16.00;74.80;;;;;;5071259;28;20853;-47
2021/03/30 08:54:38;;;;;;;17.93;12.33;;;16.00;73.90;;;;;;5070969;28;20442;-49
2021/03/30 08:57:07;;;;;;;15.70;10.80;;;16.00;74.30;;;;;;5070801;28;20437;-48
2021/03/30 08:59:34;;;;;;;18.10;11.83;;;16.20;74.20;;;;;;5071424;28;20418;-48
2021/03/30 09:02:04;;;;;;;23.77;13.77;;;16.40;74.50;;;;;;5071398;28;20464;-48
2021/03/30 09:04:37;;;;;;;18.67;13.13;;;16.20;74.30;;;;;;5070973;28;20937;-49
2021/03/30 09:07:05;;;;;;;17.40;11.30;;;16.30;74.30;;;;;;5071261;28;20443;-48
2021/03/30 09:09:35;;;;;;;17.10;12.20;;;16.20;74.00;;;;;;5071551;28;20473;-48
2021/03/30 09:12:04;;;;;;;20.63;12.63;;;16.10;73.90;;;;;;5070961;28;20478;-48
2021/03/30 09:14:31;;;;;;;16.20;12.40;;;16.50;74.80;;;;;;5070462;28;20429;-49
2021/03/30 09:17:06;;;;;;;19.93;12.23;;;16.20;74.90;;;;;;5070431;28;20433;-47
2021/03/30 09:19:42;;;;;;;23.00;11.93;;;16.50;74.00;;;;;;5069714;28;20472;-51
2021/03/30 09:22:14;;;;;;;21.07;12.43;;;16.30;73.80;;;;;;5070247;28;20520;-47
2021/03/30 09:25:04;;;;;;;19.33;12.73;;;16.70;74.10;;;;;;5069351;28;20815;-49
2021/03/30 09:27:33;;;;;;;23.33;12.27;;;16.80;74.70;;;;;;5069124;28;20986;-48
2021/03/30 09:30:01;;;;;;;40.50;14.67;;;16.60;74.40;;;;;;5070944;28;20824;-48
2021/03/30 09:32:30;;;;;;;18.10;11.20;;;16.60;75.60;;;;;;5069808;28;20498;-48
2021/03/30 09:35:07;;;;;;;21.40;11.27;;;16.50;75.70;;;;;;5070790;28;20562;-49
2021/03/30 09:37:35;;;;;;;19.20;12.07;;;16.80;76.60;;;;;;5070948;28;20457;-48
2021/03/30 09:40:07;;;;;;;19.70;11.20;;;16.80;76.70;;;;;;5071218;28;20560;-47
2021/03/30 09:42:34;;;;;;;28.30;12.83;;;16.90;76.50;;;;;;5070752;28;20926;-47
2021/03/30 09:45:00;;;;;;;27.03;12.37;;;16.60;76.30;;;;;;5071011;28;20437;-48
2021/03/30 09:47:29;;;;;;;25.07;11.67;;;16.70;77.30;;;;;;5070567;28;20815;-50
2021/03/30 09:49:56;;;;;;;25.13;13.00;;;17.00;78.90;;;;;;5072895;28;20482;-49
2021/03/30 09:52:25;;;;;;;23.23;12.50;;;16.90;78.50;;;;;;5073622;28;20781;-49
2021/03/30 09:54:51;;;;;;;20.70;11.03;;;17.30;78.90;;;;;;5074139;28;20510;-49
2021/03/30 09:57:22;;;;;;;20.17;12.17;;;17.20;79.00;;;;;;5073444;28;20536;-49
2021/03/30 09:59:50;;;;;;;14.80;11.17;;;17.10;79.10;;;;;;5074067;28;20439;-48
2021/03/30 10:02:18;;;;;;;13.60;10.20;;;16.70;78.80;;;;;;5073904;28;20765;-48
2021/03/30 10:04:45;;;;;;;18.43;10.43;;;16.90;79.10;;;;;;5073897;28;20941;-50
2021/03/30 10:07:16;;;;;;;16.50;11.20;;;17.00;79.30;;;;;;5073624;28;20460;-50
2021/03/30 10:09:58;;;;;;;18.30;11.27;;;17.00;79.30;;;;;;5073790;28;20560;-49
2021/03/30 10:12:29;;;;;;;18.20;10.27;;;17.30;79.30;;;;;;5073055;28;20428;-49
2021/03/30 10:14:56;;;;;;;18.03;10.50;;;17.30;79.70;;;;;;5073311;28;20437;-48
2021/03/30 10:17:24;;;;;;;17.90;10.33;;;17.10;80.10;;;;;;5073098;28;20819;-47
2021/03/30 10:19:53;;;;;;;15.33;11.10;;;17.50;80.60;;;;;;5072163;28;20459;-49
2021/03/30 10:22:31;;;;;;;16.90;10.63;;;17.40;80.30;;;;;;5072867;28;20489;-49
2021/03/30 10:25:28;;;;;;;17.83;11.30;;;17.50;79.80;;;;;;5074136;28;20415;-47
2021/03/30 10:27:57;;;;;;;17.07;11.50;;;17.60;79.50;;;;;;5056821;28;20811;-47
2021/03/30 10:30:32;;;;;;;18.00;12.03;;;17.40;79.10;;;;;;5073807;28;20494;-47
2021/03/30 10:33:01;;;;;;;16.90;11.03;;;17.60;79.60;;;;;;5071832;28;20475;-48
2021/03/30 10:35:29;;;;;;;13.77;9.70;;;17.60;79.50;;;;;;5073045;28;20831;-50
2021/03/30 10:37:56;;;;;;;18.63;12.10;;;17.60;79.60;;;;;;5088374;22;20508;-46
2021/03/30 10:40:31;;;;;;;21.10;11.40;;;17.60;79.90;;;;;;5053273;28;20442;-45
2021/03/30 10:42:57;;;;;;;20.63;12.57;;;17.60;80.10;;;;;;5052418;28;20946;-44
2021/03/30 10:45:30;;;;;;;17.40;12.23;;;17.80;80.40;;;;;;5052938;28;20473;-44
2021/03/30 10:48:00;;;;;;;14.37;10.07;;;17.60;80.70;;;;;;5052746;28;20471;-45
2021/03/30 10:50:26;;;;;;;18.60;13.50;;;17.90;81.00;;;;;;5051336;28;21007;-46
2021/03/30 10:52:53;;;;;;;17.93;10.83;;;17.90;80.10;;;;;;5053349;28;20892;-45
2021/03/30 10:55:20;;;;;;;14.50;10.80;;;18.20;80.10;;;;;;5053168;28;20448;-45
2021/03/30 10:57:48;;;;;;;14.10;10.43;;;17.70;79.00;;;;;;5054003;28;20457;-46
2021/03/30 11:00:16;;;;;;;22.23;11.17;;;18.10;78.80;;;;;;5053174;28;20445;-45
2021/03/30 11:02:43;;;;;;;17.23;11.40;;;18.10;78.90;;;;;;5053439;28;20431;-46
2021/03/30 11:05:11;;;;;;;13.73;10.53;;;17.60;77.50;;;;;;5053767;28;20491;-45
2021/03/30 11:07:38;;;;;;;16.00;11.43;;;18.10;77.70;;;;;;5055779;28;20448;-45
2021/03/30 11:10:09;;;;;;;14.33;11.60;;;18.10;77.30;;;;;;5054140;28;20475;-46
2021/03/30 11:12:35;;;;;;;16.83;11.90;;;17.90;76.80;;;;;;5053660;28;20432;-46
2021/03/30 11:15:03;;;;;;;18.43;12.00;;;18.20;76.40;;;;;;5052842;28;20528;-46
2021/03/30 11:17:29;;;;;;;14.27;10.50;;;18.10;77.00;;;;;;5052868;28;20455;-46
2021/03/30 11:19:55;;;;;;;19.00;11.13;;;18.30;77.30;;;;;;5052404;28;20439;-45
2021/03/30 11:22:22;;;;;;;22.00;12.10;;;18.10;77.20;;;;;;5052204;28;20440;-46
2021/03/30 11:24:48;;;;;;;18.13;11.27;;;18.40;76.90;;;;;;5051729;28;20511;-46
2021/03/30 11:27:14;;;;;;;18.23;10.87;;;18.20;77.40;;;;;;5052715;28;20429;-46
2021/03/30 11:29:43;;;;;;;14.00;8.97;;;18.40;77.50;;;;;;5052494;28;20482;-46
2021/03/30 11:32:25;;;;;;;12.77;9.47;;;18.30;77.50;;;;;;5052745;28;20437;-47
2021/03/30 11:34:57;;;;;;;18.70;11.20;;;18.30;77.70;;;;;;5052518;28;20476;-45
2021/03/30 11:37:39;;;;;;;17.40;8.80;;;18.50;77.70;;;;;;5052086;28;20437;-45
2021/03/30 11:40:07;;;;;;;14.90;9.70;;;18.70;77.50;;;;;;5052447;28;20434;-45
2021/03/30 11:42:33;;;;;;;14.50;8.90;;;18.40;76.50;;;;;;5050956;28;20467;-45
2021/03/30 11:44:59;;;;;;;14.17;9.30;;;18.70;76.40;;;;;;5052092;28;20440;-45
2021/03/30 11:47:26;;;;;;;13.03;9.70;;;18.40;75.60;;;;;;5051822;28;20454;-47
2021/03/30 11:49:53;;;;;;;15.45;10.05;;;19.10;75.90;;;;;;5050935;28;20447;-47
2021/03/30 11:52:19;;;;;;;14.83;9.90;;;18.80;74.50;;;;;;5051284;28;20664;-47
2021/03/30 11:54:46;;;;;;;14.57;10.70;;;18.90;73.90;;;;;;5051778;28;20494;-46
2021/03/30 11:57:12;;;;;;;14.60;10.00;;;18.80;73.40;;;;;;5049942;28;20535;-46
2021/03/30 11:59:39;;;;;;;20.60;11.67;;;19.10;73.80;;;;;;5051326;28;20446;-46
2021/03/30 12:02:05;;;;;;;14.87;10.93;;;19.40;74.40;;;;;;5051255;28;20436;-45
2021/03/30 12:04:32;;;;;;;19.63;14.27;;;19.10;73.80;;;;;;5051348;28;20467;-45
2021/03/30 12:06:58;;;;;;;13.70;10.33;;;18.80;73.00;;;;;;5051659;28;20426;-46
2021/03/30 12:09:25;;;;;;;14.17;9.33;;;19.10;73.30;;;;;;5051316;28;20930;-47
2021/03/30 12:11:51;;;;;;;19.33;9.77;;;18.70;72.90;;;;;;5050730;28;20453;-46
2021/03/30 12:14:18;;;;;;;14.90;8.50;;;19.00;73.40;;;;;;5051051;28;20552;-46
2021/03/30 12:16:46;;;;;;;12.77;9.40;;;19.00;72.70;;;;;;5049960;28;20529;-45
2021/03/30 12:19:14;;;;;;;15.17;10.10;;;18.90;72.20;;;;;;5050928;28;20920;-45
2021/03/30 12:21:41;;;;;;;13.83;10.70;;;19.00;72.20;;;;;;5050986;28;20433;-46
2021/03/30 12:24:09;;;;;;;15.77;10.50;;;18.90;72.20;;;;;;5050869;28;20437;-46
2021/03/30 12:26:35;;;;;;;18.80;9.60;;;19.20;72.60;;;;;;5050947;28;20531;-45
2021/03/30 12:29:03;;;;;;;14.93;9.27;;;19.20;72.60;;;;;;5050775;28;20497;-46
2021/03/30 12:31:30;;;;;;;11.50;8.30;;;18.90;71.90;;;;;;5050876;28;20433;-45
2021/03/30 12:34:00;;;;;;;16.53;9.40;;;19.20;71.80;;;;;;5050853;28;20910;-48
2021/03/30 12:36:26;;;;;;;22.23;10.77;;;19.10;71.90;;;;;;5049597;28;20635;-45
2021/03/30 12:38:54;;;;;;;17.03;10.13;;;19.30;72.30;;;;;;5049812;28;21012;-45
2021/03/30 12:41:21;;;;;;;11.60;8.90;;;19.20;72.70;;;;;;5051034;28;20492;-47
2021/03/30 12:43:48;;;;;;;18.40;9.10;;;19.10;72.50;;;;;;5050219;28;20939;-45